This is the latest recevied weather packets stored in our database for station/object I5EKX-13. If no packets are shown the sender has not sent any weather packets the latest 10 day(s).
| Time | Temp. | Humidity | Pressure | Rain* | Wind** | Luminosity | Snow |
|---|---|---|---|---|---|---|---|
| 1777913915 | 18.33° C | 70% | 1012.8 hPa | - | - | - | - |
| 1777912711 | 18.33° C | 69% | 1012.5 hPa | - | - | - | - |
| 1777911507 | 18.33° C | 68% | 1012.5 hPa | - | - | - | - |
| 1777909098 | 18.89° C | 67% | 1012.7 hPa | - | - | - | - |
| 1777907894 | 19.44° C | 65% | 1012.7 hPa | - | - | - | - |
| 1777905485 | 20° C | 65% | 1012.8 hPa | - | - | - | - |
| 1777904281 | 20° C | 64% | 1012.8 hPa | - | - | - | - |
| 1777903077 | 20° C | 63% | 1012.9 hPa | - | - | - | - |
| 1777901873 | 20.56° C | 60% | 1013 hPa | - | - | - | - |
| 1777900668 | 21.11° C | 58% | 1013.2 hPa | - | - | - | - |
| 1777899464 | 22.22° C | 55% | 1013.4 hPa | - | - | - | - |
| 1777898260 | 21.67° C | 56% | 1013.7 hPa | - | - | - | - |
| 1777897055 | 21.11° C | 60% | 1013.8 hPa | - | - | - | - |
| 1777895851 | 23.33° C | 56% | 1013.6 hPa | - | - | - | - |
| 1777894647 | 22.78° C | 55% | 1013.8 hPa | - | - | - | - |
| 1777893443 | 23.89° C | 54% | 1013.9 hPa | - | - | - | - |
| 1777892239 | 23.33° C | 55% | 1014.1 hPa | - | - | - | - |
| 1777891035 | 22.78° C | 56% | 1014.3 hPa | - | - | - | - |
| 1777886218 | 22.78° C | 57% | 1014.4 hPa | - | - | - | - |
| 1777885013 | 22.22° C | 57% | 1014.3 hPa | - | - | - | - |
| 1777883809 | 22.78° C | 55% | 1014.3 hPa | - | - | - | - |
| 1777882605 | 22.22° C | 57% | 1014.3 hPa | - | - | - | - |
| 1777880196 | 20° C | 57% | 1014 hPa | - | - | - | - |
| 1777878992 | 19.44° C | 58% | 1014.1 hPa | - | - | - | - |
| 1777877788 | 18.33° C | 63% | 1014.1 hPa | - | - | - | - |
* Rain since midnight (hover to see other rain measurements)
** Current wind speed in m/s (hover to see current wind gust speed)